createdAt,value
2022-11-17T00:00:47.127Z,11.13
2022-11-17T00:03:19.453Z,11.07
2022-11-17T00:05:52.445Z,11.02
2022-11-17T00:08:24.855Z,11.05
2022-11-17T00:10:59.458Z,11.09
2022-11-17T00:13:50.173Z,11.01
2022-11-17T00:16:22.530Z,11.08
2022-11-17T00:19:12.875Z,10.97
2022-11-17T00:21:45.878Z,10.99
2022-11-17T00:24:18.349Z,11.09
2022-11-17T00:27:01.138Z,11.12
2022-11-17T00:29:38.585Z,11.04
2022-11-17T00:32:30.524Z,11.07
2022-11-17T00:35:04.215Z,10.97
2022-11-17T00:37:58.980Z,11.03
2022-11-17T00:40:31.352Z,11.07
2022-11-17T00:43:03.726Z,11.06
2022-11-17T00:45:36.166Z,10.93
2022-11-17T00:48:08.558Z,10.98
2022-11-17T00:50:40.910Z,11.03
2022-11-17T00:53:13.908Z,11.09
2022-11-17T01:04:20.173Z,11.19
2022-11-17T01:06:52.546Z,11.15
2022-11-17T01:09:25.642Z,11.24
2022-11-17T01:11:57.989Z,11.17
2022-11-17T01:14:31.986Z,11.12
2022-11-17T01:17:04.347Z,11.21
2022-11-17T01:19:36.705Z,11.24
2022-11-17T01:22:09.042Z,11.22
2022-11-17T01:24:42.042Z,11.24
2022-11-17T01:27:14.339Z,11.23
2022-11-17T01:29:46.717Z,11.23
2022-11-17T01:32:19.079Z,11.23
2022-11-17T01:34:51.453Z,11.23
2022-11-17T01:37:23.768Z,11.26
2022-11-17T01:39:56.814Z,11.33
2022-11-17T01:42:29.213Z,11.36
2022-11-17T01:45:04.398Z,11.35
2022-11-17T01:47:42.415Z,11.31
2022-11-17T01:50:30.798Z,11.35
2022-11-17T01:53:08.721Z,11.43
2022-11-17T01:55:47.680Z,11.50
2022-11-17T01:58:25.044Z,11.51
2022-11-17T02:00:57.611Z,11.47
2022-11-17T02:03:32.139Z,11.54
2022-11-17T02:06:08.281Z,11.60
2022-11-17T02:08:45.698Z,11.46
2022-11-17T02:11:20.575Z,11.56
2022-11-17T02:13:55.812Z,11.55
2022-11-17T02:16:28.197Z,11.48
2022-11-17T02:19:00.605Z,11.50
2022-11-17T02:22:03.248Z,11.48
2022-11-17T02:25:03.218Z,11.43
2022-11-17T02:27:53.907Z,11.32
2022-11-17T02:30:33.696Z,11.30
2022-11-17T02:33:11.229Z,11.33
2022-11-17T02:35:48.453Z,11.24
2022-11-17T02:38:31.323Z,11.35
2022-11-17T02:41:10.164Z,11.41
2022-11-17T02:44:03.339Z,11.24
2022-11-17T02:46:43.531Z,11.43
2022-11-17T02:49:20.619Z,11.33
2022-11-17T02:51:56.522Z,11.42
2022-11-17T02:54:30.713Z,11.33
2022-11-17T02:57:03.111Z,11.43
2022-11-17T02:59:42.524Z,11.49
2022-11-17T03:02:29.986Z,11.44
2022-11-17T03:05:12.379Z,11.31
2022-11-17T03:08:05.937Z,11.33
2022-11-17T03:11:10.931Z,11.40
2022-11-17T03:13:49.541Z,11.35
2022-11-17T03:16:29.581Z,11.20
2022-11-17T03:19:10.565Z,11.03
2022-11-17T03:21:48.565Z,11.18
2022-11-17T03:24:23.498Z,10.96
2022-11-17T03:27:00.121Z,11.06
2022-11-17T03:29:35.355Z,10.78
2022-11-17T03:32:10.026Z,10.80
2022-11-17T03:34:48.758Z,10.66
2022-11-17T03:37:23.362Z,10.65
2022-11-17T03:40:01.005Z,10.64
2022-11-17T03:42:36.239Z,10.69
2022-11-17T03:45:14.141Z,10.78
2022-11-17T03:47:51.649Z,10.57
2022-11-17T03:50:29.789Z,10.56
2022-11-17T03:53:03.889Z,10.38
2022-11-17T03:55:46.745Z,10.61
2022-11-17T03:58:22.391Z,10.54
2022-11-17T04:00:58.054Z,10.57
2022-11-17T04:03:33.243Z,10.46
2022-11-17T04:06:06.305Z,10.41
2022-11-17T04:08:38.598Z,10.60
2022-11-17T04:11:29.158Z,10.61
2022-11-17T04:14:19.842Z,10.51
2022-11-17T04:16:52.162Z,10.69
2022-11-17T04:19:25.175Z,10.66
2022-11-17T04:21:57.546Z,10.53
2022-11-17T04:24:29.898Z,10.63
2022-11-17T04:27:20.229Z,10.52
2022-11-17T04:29:52.554Z,10.52
2022-11-17T04:32:24.917Z,10.59
2022-11-17T04:34:57.874Z,10.57
2022-11-17T04:37:30.328Z,10.53
2022-11-17T04:40:03.191Z,10.67
2022-11-17T04:42:35.193Z,10.72
2022-11-17T04:45:08.692Z,10.52
2022-11-17T04:47:41.037Z,10.64
2022-11-17T04:50:14.086Z,10.62
2022-11-17T04:52:46.392Z,10.63
2022-11-17T04:55:18.697Z,10.61
2022-11-17T04:57:51.041Z,10.52
2022-11-17T05:00:23.528Z,10.47
2022-11-17T05:02:55.863Z,10.43
2022-11-17T05:05:28.874Z,10.45
2022-11-17T05:08:01.203Z,10.39
2022-11-17T05:10:51.511Z,10.42
2022-11-17T05:13:25.432Z,10.38
2022-11-17T05:16:30.772Z,10.38
2022-11-17T05:19:03.967Z,10.31
2022-11-17T05:21:37.113Z,10.25
2022-11-17T05:24:09.619Z,10.36
2022-11-17T05:26:43.494Z,10.36
2022-11-17T05:29:17.733Z,10.47
2022-11-17T05:31:50.313Z,10.46
2022-11-17T05:34:22.621Z,10.46
2022-11-17T05:36:55.853Z,10.58
2022-11-17T05:39:28.249Z,10.46
2022-11-17T05:42:00.790Z,10.55
2022-11-17T05:44:33.167Z,10.41
2022-11-17T05:47:05.529Z,10.44
2022-11-17T05:49:37.882Z,10.43
2022-11-17T05:52:10.964Z,10.38
2022-11-17T05:54:43.297Z,10.44
2022-11-17T05:57:22.645Z,10.35
2022-11-17T06:00:00.308Z,10.44
2022-11-17T06:02:37.874Z,10.32
2022-11-17T06:05:12.373Z,10.29
2022-11-17T06:07:48.913Z,10.37
2022-11-17T06:10:21.294Z,10.45
2022-11-17T06:12:53.677Z,10.44
2022-11-17T06:15:26.512Z,10.46
2022-11-17T06:18:02.175Z,10.46
2022-11-17T06:20:39.626Z,10.53
2022-11-17T06:23:12.847Z,10.56
2022-11-17T06:25:45.623Z,10.66
2022-11-17T06:28:20.801Z,10.76
2022-11-17T06:30:54.231Z,10.66
2022-11-17T06:33:30.377Z,10.67
2022-11-17T06:36:05.635Z,10.59
2022-11-17T06:38:38.689Z,10.59
2022-11-17T06:41:12.209Z,10.68
2022-11-17T06:43:44.742Z,10.55
2022-11-17T06:46:18.257Z,10.39
2022-11-17T06:48:53.759Z,10.34
2022-11-17T06:51:26.057Z,10.23
2022-11-17T06:53:59.163Z,9.91
2022-11-17T06:56:31.602Z,9.94
2022-11-17T06:59:04.090Z,9.74
2022-11-17T07:01:37.060Z,9.38
2022-11-17T07:04:09.534Z,9.23
2022-11-17T07:06:41.954Z,9.02
2022-11-17T07:09:14.991Z,8.98
2022-11-17T07:11:47.428Z,8.94
2022-11-17T07:14:19.860Z,8.97
2022-11-17T07:16:52.229Z,8.91
2022-11-17T07:19:24.617Z,8.95
2022-11-17T07:21:57.069Z,8.66
2022-11-17T07:24:30.251Z,8.60
2022-11-17T07:27:04.141Z,8.64
2022-11-17T07:29:36.512Z,8.66
2022-11-17T07:32:13.083Z,8.62
2022-11-17T07:34:45.549Z,8.66
2022-11-17T07:37:18.203Z,8.52
2022-11-17T07:39:51.323Z,8.51
2022-11-17T07:42:23.731Z,8.55
2022-11-17T07:44:58.597Z,8.59
2022-11-17T07:47:30.971Z,8.65
2022-11-17T07:50:04.062Z,8.75
2022-11-17T07:52:41.272Z,8.77
2022-11-17T07:55:14.960Z,8.88
2022-11-17T07:57:47.385Z,9.05
2022-11-17T08:00:20.299Z,9.16
2022-11-17T08:02:52.760Z,9.29
2022-11-17T08:05:29.896Z,9.45
2022-11-17T08:08:02.349Z,9.66
2022-11-17T08:10:35.458Z,9.72
2022-11-17T08:13:08.100Z,9.79
2022-11-17T08:15:43.389Z,9.84
2022-11-17T08:18:16.139Z,9.83
2022-11-17T08:20:48.584Z,9.92
2022-11-17T08:23:20.942Z,9.89
2022-11-17T08:25:54.055Z,9.99
2022-11-17T08:28:26.449Z,9.89
2022-11-17T08:31:01.192Z,9.89
2022-11-17T08:33:34.017Z,9.82
2022-11-17T08:36:06.865Z,9.79
2022-11-17T08:38:39.378Z,9.68
2022-11-17T08:41:12.601Z,9.67
2022-11-17T08:43:45.154Z,9.75
2022-11-17T08:46:17.501Z,9.84
2022-11-17T08:48:55.537Z,9.79
2022-11-17T08:51:29.441Z,9.73
2022-11-17T08:54:01.856Z,9.83
2022-11-17T08:56:34.901Z,9.84
2022-11-17T08:59:08.700Z,9.89
2022-11-17T09:01:41.134Z,10.11
2022-11-17T09:04:13.726Z,10.14
2022-11-17T09:06:46.065Z,10.19
2022-11-17T09:09:18.568Z,10.28
2022-11-17T09:11:51.605Z,10.37
2022-11-17T09:14:24.584Z,10.50
2022-11-17T09:16:57.003Z,10.51
2022-11-17T09:19:29.816Z,10.50
2022-11-17T09:22:02.223Z,10.55
2022-11-17T09:24:34.672Z,10.66
2022-11-17T09:27:08.083Z,10.73
2022-11-17T09:29:40.457Z,10.80
2022-11-17T09:32:12.931Z,10.95
2022-11-17T09:34:45.505Z,10.94
2022-11-17T09:37:17.827Z,10.99
2022-11-17T09:39:50.182Z,10.95
2022-11-17T09:42:23.314Z,11.01
2022-11-17T09:45:01.539Z,11.07
2022-11-17T09:47:40.911Z,10.98
2022-11-17T09:50:21.624Z,11.00
2022-11-17T09:53:00.816Z,10.96
2022-11-17T09:55:36.797Z,11.11
2022-11-17T09:58:17.658Z,11.10
2022-11-17T10:00:52.104Z,11.27
2022-11-17T10:03:27.682Z,11.19
2022-11-17T10:06:03.816Z,11.26
2022-11-17T10:08:42.173Z,11.18
2022-11-17T10:11:31.402Z,11.18
2022-11-17T10:14:12.733Z,11.11
2022-11-17T10:16:50.745Z,11.22
2022-11-17T10:19:24.916Z,11.17
2022-11-17T10:22:15.425Z,11.15
2022-11-17T10:24:50.230Z,11.12
2022-11-17T10:27:24.899Z,11.00
2022-11-17T10:29:59.944Z,10.94
2022-11-17T10:32:34.596Z,10.85
2022-11-17T10:35:15.568Z,10.89
2022-11-17T10:37:54.711Z,10.81
2022-11-17T10:40:29.640Z,10.66
2022-11-17T10:43:16.987Z,10.70
2022-11-17T10:45:52.923Z,10.73
2022-11-17T10:48:28.804Z,10.79
2022-11-17T10:51:03.188Z,10.94
2022-11-17T10:53:43.340Z,11.01
2022-11-17T10:56:20.900Z,10.96
2022-11-17T10:59:00.950Z,10.78
2022-11-17T11:01:36.865Z,10.89
2022-11-17T11:04:28.432Z,11.11
2022-11-17T11:07:11.132Z,11.26
2022-11-17T11:09:53.609Z,11.36
2022-11-17T11:12:35.928Z,11.28
2022-11-17T11:15:15.087Z,11.19
2022-11-17T11:17:48.520Z,11.37
2022-11-17T11:20:31.432Z,11.27
2022-11-17T11:23:14.094Z,11.44
2022-11-17T11:25:51.544Z,11.34
2022-11-17T11:28:42.720Z,11.37
2022-11-17T11:31:28.256Z,11.37
2022-11-17T11:34:14.579Z,11.20
2022-11-17T11:36:53.539Z,11.26
2022-11-17T11:39:40.010Z,11.07
2022-11-17T11:42:31.488Z,11.16
2022-11-17T11:45:16.049Z,11.24
2022-11-17T11:48:14.429Z,11.10
2022-11-17T11:50:56.995Z,11.21
2022-11-17T11:53:42.532Z,11.30
2022-11-17T11:56:19.543Z,11.28
2022-11-17T11:59:00.303Z,11.44
2022-11-17T12:01:53.072Z,11.43
2022-11-17T12:04:37.579Z,11.32
2022-11-17T12:07:17.242Z,11.33
2022-11-17T12:09:57.717Z,11.24
2022-11-17T12:12:33.179Z,11.24
2022-11-17T12:15:36.326Z,11.25
2022-11-17T12:18:13.780Z,11.36
2022-11-17T12:20:52.456Z,11.47
2022-11-17T12:23:42.304Z,11.51
2022-11-17T12:26:23.191Z,11.57
2022-11-17T12:29:31.112Z,11.41
2022-11-17T12:32:03.625Z,11.52
2022-11-17T12:34:36.561Z,11.69
2022-11-17T12:37:25.442Z,11.72
2022-11-17T12:40:03.199Z,11.74
2022-11-17T12:42:57.442Z,11.75
2022-11-17T12:45:50.292Z,11.93
2022-11-17T12:48:33.924Z,12.06
2022-11-17T12:51:11.769Z,11.95
2022-11-17T12:53:59.058Z,12.07
2022-11-17T12:56:49.954Z,11.96
2022-11-17T12:59:59.591Z,11.94
2022-11-17T13:02:49.336Z,12.20
2022-11-17T13:05:24.392Z,12.15
2022-11-17T13:08:21.231Z,12.11
2022-11-17T13:11:02.865Z,12.05
2022-11-17T13:13:37.162Z,12.11
2022-11-17T13:16:18.374Z,12.19
2022-11-17T13:18:50.760Z,12.19
2022-11-17T13:21:32.443Z,12.29
2022-11-17T13:24:05.178Z,12.44
2022-11-17T13:26:37.632Z,12.58
2022-11-17T13:29:11.945Z,12.71
2022-11-17T13:31:45.406Z,12.64
2022-11-17T13:34:20.540Z,12.57
2022-11-17T13:36:55.217Z,12.45
2022-11-17T13:39:28.705Z,12.41
2022-11-17T13:42:02.688Z,12.28
2022-11-17T13:44:35.271Z,12.34
2022-11-17T13:47:20.962Z,12.16
2022-11-17T13:49:53.485Z,12.18
2022-11-17T13:52:39.351Z,12.19
2022-11-17T13:55:19.590Z,12.09
2022-11-17T13:57:55.401Z,12.10
2022-11-17T14:00:29.112Z,12.09
2022-11-17T14:03:04.407Z,12.05
2022-11-17T14:05:36.789Z,12.01
2022-11-17T14:08:23.077Z,12.10
2022-11-17T14:11:06.651Z,12.01
2022-11-17T14:13:41.583Z,11.94
2022-11-17T14:16:26.701Z,11.93
2022-11-17T14:19:05.359Z,11.92
2022-11-17T14:21:57.664Z,11.94
2022-11-17T14:24:31.471Z,11.89
2022-11-17T14:27:12.913Z,11.94
2022-11-17T14:29:45.683Z,11.88
2022-11-17T14:32:18.035Z,11.90
2022-11-17T14:34:50.422Z,11.93
2022-11-17T14:37:22.826Z,11.97
2022-11-17T14:39:55.872Z,12.03
2022-11-17T14:42:33.001Z,11.92
2022-11-17T14:45:12.013Z,12.02
2022-11-17T14:47:44.410Z,11.95
2022-11-17T14:50:18.636Z,11.90
2022-11-17T14:52:51.034Z,11.99
2022-11-17T14:55:26.099Z,11.99
2022-11-17T14:57:58.481Z,11.94
2022-11-17T15:00:30.843Z,11.89
2022-11-17T15:03:03.465Z,11.93
2022-11-17T15:05:35.941Z,12.10
2022-11-17T15:08:09.688Z,12.22
2022-11-17T15:10:45.850Z,12.24
2022-11-17T15:13:18.251Z,12.35
2022-11-17T15:15:50.622Z,12.34
2022-11-17T15:18:23.007Z,12.35
2022-11-17T15:21:02.760Z,12.43
2022-11-17T15:23:36.935Z,12.51
2022-11-17T15:26:12.826Z,12.29
2022-11-17T15:28:45.715Z,12.28
2022-11-17T15:31:19.988Z,12.26
2022-11-17T15:33:52.500Z,12.25
2022-11-17T15:36:25.534Z,12.31
2022-11-17T15:38:57.923Z,12.46
2022-11-17T15:41:33.055Z,12.30
2022-11-17T15:44:05.665Z,12.24
2022-11-17T15:46:41.591Z,12.25
2022-11-17T15:49:17.205Z,12.26
2022-11-17T15:51:49.943Z,12.29
2022-11-17T15:54:22.732Z,12.39
2022-11-17T15:56:55.845Z,12.42
2022-11-17T15:59:28.324Z,12.48
2022-11-17T16:02:08.385Z,12.34
2022-11-17T16:04:40.837Z,12.31
2022-11-17T16:07:13.242Z,12.32
2022-11-17T16:09:49.267Z,12.26
2022-11-17T16:12:23.565Z,12.35
2022-11-17T16:14:55.943Z,12.32
2022-11-17T16:17:28.302Z,12.25
2022-11-17T16:20:00.816Z,12.30
2022-11-17T16:22:33.491Z,12.28
2022-11-17T16:25:09.692Z,12.39
2022-11-17T16:27:42.758Z,12.39
2022-11-17T16:30:16.051Z,12.44
2022-11-17T16:32:48.645Z,12.49
2022-11-17T16:35:21.045Z,12.38
2022-11-17T16:37:53.950Z,12.37
2022-11-17T16:40:26.345Z,12.42
2022-11-17T16:42:59.423Z,12.51
2022-11-17T16:45:40.150Z,12.38
2022-11-17T16:48:12.737Z,12.25
2022-11-17T16:50:46.138Z,12.24
2022-11-17T16:53:18.510Z,12.31
2022-11-17T16:55:50.874Z,12.32
2022-11-17T16:58:23.916Z,12.40
2022-11-17T17:00:56.994Z,12.27
2022-11-17T17:03:29.385Z,12.42
2022-11-17T17:06:02.953Z,12.47
2022-11-17T17:08:35.964Z,12.40
2022-11-17T17:11:09.919Z,12.19
2022-11-17T17:13:43.112Z,12.17
2022-11-17T17:16:18.277Z,12.19
2022-11-17T17:18:54.896Z,12.24
2022-11-17T17:21:28.732Z,12.29
2022-11-17T17:24:01.650Z,12.15
2022-11-17T17:26:35.195Z,12.20
2022-11-17T17:29:09.726Z,12.26
2022-11-17T17:31:42.536Z,12.28
2022-11-17T17:34:15.022Z,12.35
2022-11-17T17:36:47.412Z,12.34
2022-11-17T17:39:19.845Z,12.38
2022-11-17T17:41:52.264Z,12.34
2022-11-17T17:44:25.342Z,12.43
2022-11-17T17:46:57.822Z,12.49
2022-11-17T17:49:30.197Z,12.55
2022-11-17T17:52:02.667Z,12.44
2022-11-17T17:54:35.054Z,12.30
2022-11-17T17:57:08.356Z,12.22
2022-11-17T17:59:41.485Z,12.30
2022-11-17T18:02:14.016Z,12.31
2022-11-17T18:04:46.375Z,12.36
2022-11-17T18:07:18.809Z,12.38
2022-11-17T18:09:51.209Z,12.37
2022-11-17T18:12:23.686Z,12.37
2022-11-17T18:14:56.762Z,12.37
2022-11-17T18:17:29.148Z,12.31
2022-11-17T18:20:01.592Z,12.33
2022-11-17T18:22:34.249Z,12.34
2022-11-17T18:25:08.060Z,12.31
2022-11-17T18:27:40.460Z,12.27
2022-11-17T18:30:13.863Z,12.26
2022-11-17T18:32:46.218Z,12.32
2022-11-17T18:35:18.527Z,12.34
2022-11-17T18:37:50.918Z,12.23
2022-11-17T18:40:23.354Z,12.14
2022-11-17T18:42:59.213Z,12.20
2022-11-17T18:45:36.537Z,12.19
2022-11-17T18:48:08.902Z,12.22
2022-11-17T18:51:17.312Z,12.16
2022-11-17T18:53:36.229Z,12.24
2022-11-17T18:56:10.761Z,12.27
2022-11-17T18:58:43.811Z,12.23
2022-11-17T19:01:21.236Z,12.20
2022-11-17T19:03:55.796Z,12.24
2022-11-17T19:06:28.769Z,12.13
2022-11-17T19:09:01.327Z,12.15
2022-11-17T19:11:34.070Z,12.16
2022-11-17T19:14:06.552Z,12.14
2022-11-17T19:16:44.007Z,12.14
2022-11-17T19:19:17.329Z,12.13
2022-11-17T19:21:49.977Z,12.10
2022-11-17T19:24:22.453Z,12.04
2022-11-17T19:26:54.823Z,12.04
2022-11-17T19:29:27.200Z,12.08
2022-11-17T19:32:00.213Z,12.05
2022-11-17T19:34:32.626Z,12.05
2022-11-17T19:37:05.088Z,12.10
2022-11-17T19:39:37.532Z,12.08
2022-11-17T19:42:11.568Z,12.08
2022-11-17T19:44:43.972Z,12.08
2022-11-17T19:47:17.216Z,12.06
2022-11-17T19:49:49.664Z,12.10
2022-11-17T19:52:21.955Z,12.11
2022-11-17T19:54:54.362Z,12.11
2022-11-17T19:57:26.754Z,12.13
2022-11-17T19:59:59.156Z,12.11
2022-11-17T20:02:32.400Z,12.11
2022-11-17T20:05:10.542Z,12.11
2022-11-17T20:07:43.345Z,12.14
2022-11-17T20:10:16.451Z,12.12
2022-11-17T20:12:48.840Z,12.14
2022-11-17T20:15:34.030Z,12.14
2022-11-17T20:18:07.980Z,12.17
2022-11-17T20:20:40.814Z,12.15
2022-11-17T20:23:13.163Z,12.14
2022-11-17T20:25:45.541Z,12.17
2022-11-17T20:28:17.931Z,12.09
2022-11-17T20:31:00.241Z,12.13
2022-11-17T20:33:33.701Z,12.14
2022-11-17T20:36:06.940Z,12.16
2022-11-17T20:38:39.424Z,12.17
2022-11-17T20:41:11.810Z,12.18
2022-11-17T20:43:48.218Z,12.22
2022-11-17T20:46:21.716Z,11.97
2022-11-17T20:48:54.808Z,12.15
2022-11-17T20:51:27.156Z,12.16
2022-11-17T20:53:59.609Z,12.10
2022-11-17T20:56:32.065Z,12.14
2022-11-17T20:59:04.464Z,12.12
2022-11-17T21:01:36.919Z,12.04
2022-11-17T21:04:10.563Z,12.03
2022-11-17T21:06:42.889Z,12.06
2022-11-17T21:09:15.618Z,12.04
2022-11-17T21:11:57.332Z,11.98
2022-11-17T21:14:29.794Z,11.92
2022-11-17T21:17:03.092Z,11.91
2022-11-17T21:19:39.017Z,11.89
2022-11-17T21:22:11.786Z,11.84
2022-11-17T21:24:44.127Z,11.72
2022-11-17T21:27:19.194Z,11.72
2022-11-17T21:29:51.611Z,11.65
2022-11-17T21:32:24.007Z,11.60
2022-11-17T21:34:57.172Z,11.53
2022-11-17T21:37:29.545Z,11.54
2022-11-17T21:40:01.958Z,11.46
2022-11-17T21:42:34.370Z,11.39
2022-11-17T21:45:08.037Z,11.33
2022-11-17T21:47:40.559Z,11.28
2022-11-17T21:50:13.651Z,11.24
2022-11-17T21:52:45.974Z,11.21
2022-11-17T21:55:18.376Z,11.21
2022-11-17T21:57:50.776Z,11.19
2022-11-17T22:00:24.381Z,11.20
2022-11-17T22:02:56.746Z,11.15
2022-11-17T22:05:29.772Z,11.10
2022-11-17T22:08:02.110Z,11.08
2022-11-17T22:10:35.174Z,11.07
2022-11-17T22:13:07.728Z,11.06
2022-11-17T22:15:40.102Z,11.03
2022-11-17T22:18:12.489Z,10.91
2022-11-17T22:20:51.094Z,10.91
2022-11-17T22:23:23.435Z,10.80
2022-11-17T22:25:56.966Z,10.85
2022-11-17T22:28:30.007Z,10.86
2022-11-17T22:31:05.229Z,10.89
2022-11-17T22:33:39.358Z,10.78
2022-11-17T22:36:12.577Z,10.81
2022-11-17T22:38:45.230Z,10.86
2022-11-17T22:41:19.977Z,10.90
2022-11-17T22:43:53.626Z,10.88
2022-11-17T22:46:27.871Z,10.86
2022-11-17T22:49:00.208Z,10.87
2022-11-17T22:51:51.562Z,10.85
2022-11-17T22:54:23.897Z,10.85
2022-11-17T22:56:56.363Z,10.85
2022-11-17T22:59:29.687Z,10.81
2022-11-17T23:02:02.073Z,10.80
2022-11-17T23:04:34.403Z,10.78
2022-11-17T23:07:08.039Z,10.77
2022-11-17T23:09:40.391Z,10.82
2022-11-17T23:12:12.831Z,10.80
2022-11-17T23:14:45.187Z,10.83
2022-11-17T23:17:17.602Z,10.81
2022-11-17T23:19:49.948Z,10.82
2022-11-17T23:22:22.994Z,10.76
2022-11-17T23:24:55.353Z,10.73
2022-11-17T23:27:27.777Z,10.67
2022-11-17T23:30:00.101Z,10.69
2022-11-17T23:32:32.558Z,10.64
2022-11-17T23:35:05.590Z,10.61
2022-11-17T23:37:38.641Z,10.56
2022-11-17T23:40:11.721Z,10.53
2022-11-17T23:42:44.212Z,10.49
2022-11-17T23:45:16.725Z,10.44
2022-11-17T23:47:49.049Z,10.45
2022-11-17T23:50:21.407Z,10.45
2022-11-17T23:52:54.463Z,10.46
2022-11-17T23:55:27.385Z,10.45
2022-11-17T23:57:59.708Z,10.50
